createdAt,value
2022-12-11T00:02:36.242Z,98140.91
2022-12-11T00:05:40.201Z,98145.00
2022-12-11T00:08:43.053Z,98143.72
2022-12-11T00:11:45.739Z,98145.38
2022-12-11T00:14:47.831Z,98136.69
2022-12-11T00:17:50.196Z,98144.62
2022-12-11T00:20:52.424Z,98138.00
2022-12-11T00:23:54.805Z,98149.06
2022-12-11T00:26:56.955Z,98138.72
2022-12-11T00:29:59.372Z,98133.19
2022-12-11T00:33:01.455Z,98133.84
2022-12-11T00:36:03.989Z,98147.59
2022-12-11T00:39:06.517Z,98135.81
2022-12-11T00:42:08.934Z,98133.28
2022-12-11T00:45:11.771Z,98134.28
2022-12-11T00:48:14.326Z,98136.44
2022-12-11T00:51:18.033Z,98124.63
2022-12-11T00:54:20.366Z,98139.44
2022-12-11T00:57:22.460Z,98140.41
2022-12-11T01:00:24.917Z,98145.25
2022-12-11T01:03:26.987Z,98147.03
2022-12-11T01:06:29.633Z,98150.59
2022-12-11T01:09:50.202Z,98142.13
2022-12-11T01:12:59.159Z,98146.25
2022-12-11T01:16:06.465Z,98153.97
2022-12-11T01:19:09.078Z,98161.84
2022-12-11T01:22:11.522Z,98162.94
2022-12-11T01:25:14.323Z,98166.09
2022-12-11T01:28:17.325Z,98159.69
2022-12-11T01:31:20.185Z,98167.88
2022-12-11T01:34:22.299Z,98166.72
2022-12-11T01:37:24.643Z,98166.91
2022-12-11T01:40:26.862Z,98168.69
2022-12-11T01:43:29.381Z,98165.06
2022-12-11T01:46:34.469Z,98154.84
2022-12-11T01:49:39.337Z,98150.44
2022-12-11T01:52:43.360Z,98163.66
2022-12-11T01:55:46.899Z,98168.22
2022-12-11T01:58:57.464Z,98172.94
2022-12-11T02:02:08.168Z,98171.81
2022-12-11T02:05:11.446Z,98168.69
2022-12-11T02:08:14.363Z,98174.81
2022-12-11T02:11:24.037Z,98171.22
2022-12-11T02:14:50.245Z,98154.25
2022-12-11T02:18:29.827Z,98154.25
2022-12-11T02:21:39.242Z,98159.75
2022-12-11T02:24:58.271Z,98169.00
2022-12-11T02:28:33.494Z,98172.16
2022-12-11T02:31:45.143Z,98149.69
2022-12-11T02:34:58.132Z,98152.84
2022-12-11T02:38:22.618Z,98150.00
2022-12-11T02:41:26.215Z,98147.00
2022-12-11T02:44:33.327Z,98145.78
2022-12-11T02:47:37.143Z,98142.28
2022-12-11T02:50:44.402Z,98143.84
2022-12-11T02:53:47.382Z,98134.44
2022-12-11T02:56:57.265Z,98133.03
2022-12-11T02:59:59.427Z,98128.31
2022-12-11T03:03:02.288Z,98130.38
2022-12-11T03:06:04.656Z,98128.16
2022-12-11T03:09:07.507Z,98125.31
2022-12-11T03:12:14.896Z,98125.31
2022-12-11T03:15:20.600Z,98114.97
2022-12-11T03:18:39.468Z,98127.03
2022-12-11T03:22:03.640Z,98123.91
2022-12-11T03:25:09.222Z,98130.28
2022-12-11T03:28:19.329Z,98133.59
2022-12-11T03:31:27.466Z,98132.69
2022-12-11T03:34:58.342Z,98134.44
2022-12-11T03:38:05.495Z,98136.91
2022-12-11T03:41:09.969Z,98134.19
2022-12-11T03:44:12.562Z,98122.59
2022-12-11T03:47:19.689Z,98124.34
2022-12-11T03:50:23.868Z,98141.75
2022-12-11T03:53:27.178Z,98143.81
2022-12-11T03:56:33.790Z,98138.16
2022-12-11T03:59:36.268Z,98143.16
2022-12-11T04:02:38.529Z,98140.00
2022-12-11T04:05:43.297Z,98146.41
2022-12-11T04:08:45.545Z,98146.59
2022-12-11T04:11:47.950Z,98155.31
2022-12-11T04:15:01.868Z,98173.59
2022-12-11T04:18:24.141Z,98156.34
2022-12-11T04:21:45.112Z,98155.38
2022-12-11T04:24:48.122Z,98144.84
2022-12-11T04:27:50.147Z,98166.00
2022-12-11T04:30:52.620Z,98171.50
2022-12-11T04:33:54.797Z,98183.09
2022-12-11T04:36:57.237Z,98167.09
2022-12-11T04:39:59.370Z,98174.50
2022-12-11T04:43:01.814Z,98171.75
2022-12-11T04:46:08.170Z,98183.66
2022-12-11T04:49:10.607Z,98185.44
2022-12-11T04:52:12.668Z,98187.31
2022-12-11T04:55:15.049Z,98199.22
2022-12-11T04:58:17.182Z,98198.88
2022-12-11T05:01:22.409Z,98195.31
2022-12-11T05:04:24.737Z,98213.38
2022-12-11T05:07:27.381Z,98203.81
2022-12-11T05:10:29.508Z,98219.81
2022-12-11T05:13:32.457Z,98222.31
2022-12-11T05:16:34.544Z,98215.94
2022-12-11T05:19:36.959Z,98217.44
2022-12-11T05:22:39.519Z,98220.72
2022-12-11T05:25:41.840Z,98232.06
2022-12-11T05:28:45.335Z,98237.62
2022-12-11T05:31:47.770Z,98235.16
2022-12-11T05:34:50.744Z,98217.28
2022-12-11T05:37:53.169Z,98217.09
2022-12-11T05:41:04.258Z,98209.87
2022-12-11T05:44:06.616Z,98229.16
2022-12-11T05:47:08.937Z,98225.53
2022-12-11T05:50:11.640Z,98224.59
2022-12-11T05:53:13.712Z,98221.84
2022-12-11T05:56:19.069Z,98210.09
2022-12-11T05:59:21.251Z,98208.84
2022-12-11T06:02:23.773Z,98225.63
2022-12-11T06:05:26.237Z,98241.28
2022-12-11T06:08:28.548Z,98252.62
2022-12-11T06:11:32.599Z,98250.16
2022-12-11T06:14:34.695Z,98283.81
2022-12-11T06:17:37.143Z,98269.22
2022-12-11T06:20:39.571Z,98284.97
2022-12-11T06:23:42.888Z,98286.50
2022-12-11T06:26:45.065Z,98288.69
2022-12-11T06:29:47.451Z,98303.22
2022-12-11T06:32:49.615Z,98303.81
2022-12-11T06:35:52.238Z,98302.06
2022-12-11T06:38:55.425Z,98302.06
2022-12-11T06:41:57.857Z,98316.34
2022-12-11T06:45:00.006Z,98317.03
2022-12-11T06:48:02.374Z,98313.75
2022-12-11T06:51:09.944Z,98315.34
2022-12-11T06:54:12.311Z,98324.69
2022-12-11T06:57:14.524Z,98326.31
2022-12-11T07:00:17.219Z,98335.00
2022-12-11T07:03:19.277Z,98339.75
2022-12-11T07:06:22.017Z,98336.78
2022-12-11T07:09:24.543Z,98337.13
2022-12-11T07:12:26.942Z,98343.44
2022-12-11T07:15:29.043Z,98344.53
2022-12-11T07:18:32.707Z,98358.81
2022-12-11T07:21:35.205Z,98376.03
2022-12-11T07:24:37.616Z,98365.72
2022-12-11T07:27:39.676Z,98390.72
2022-12-11T07:30:42.049Z,98368.91
2022-12-11T07:33:44.425Z,98385.06
2022-12-11T07:36:46.806Z,98369.63
2022-12-11T07:39:49.068Z,98373.25
2022-12-11T07:42:51.462Z,98399.50
2022-12-11T07:45:53.625Z,98386.78
2022-12-11T07:48:56.246Z,98416.88
2022-12-11T07:51:58.370Z,98406.22
2022-12-11T07:55:00.757Z,98418.94
2022-12-11T07:58:03.685Z,98421.59
2022-12-11T08:01:10.307Z,98428.50
2022-12-11T08:04:15.578Z,98434.47
2022-12-11T08:07:17.656Z,98425.84
2022-12-11T08:10:20.142Z,98432.47
2022-12-11T08:13:22.238Z,98445.19
2022-12-11T08:16:25.346Z,98460.47
2022-12-11T08:19:27.966Z,98472.34
2022-12-11T08:22:30.329Z,98473.16
2022-12-11T08:25:32.843Z,98470.97
2022-12-11T08:28:36.009Z,98481.75
2022-12-11T08:31:39.905Z,98487.97
2022-12-11T08:34:42.306Z,98484.47
2022-12-11T08:37:44.445Z,98501.28
2022-12-11T08:40:46.811Z,98501.94
2022-12-11T08:43:49.102Z,98510.06
2022-12-11T08:46:51.444Z,98522.22
2022-12-11T08:49:53.511Z,98529.41
2022-12-11T08:52:55.960Z,98535.56
2022-12-11T08:56:02.357Z,98532.56
2022-12-11T08:59:06.236Z,98535.97
2022-12-11T09:02:12.753Z,98539.00
2022-12-11T09:05:15.272Z,98540.69
2022-12-11T09:08:17.939Z,98556.47
2022-12-11T09:11:26.881Z,98546.50
2022-12-11T09:14:29.015Z,98555.00
2022-12-11T09:17:31.531Z,98528.13
2022-12-11T09:20:33.601Z,98537.72
2022-12-11T09:23:36.801Z,98529.72
2022-12-11T09:26:39.952Z,98538.50
2022-12-11T09:29:42.473Z,98547.53
2022-12-11T09:32:44.550Z,98554.91
2022-12-11T09:35:46.943Z,98551.97
2022-12-11T09:38:49.004Z,98556.78
2022-12-11T09:42:00.365Z,98542.75
2022-12-11T09:45:03.996Z,98551.44
2022-12-11T09:48:07.807Z,98548.19
2022-12-11T09:51:28.695Z,98539.97
2022-12-11T09:54:32.470Z,98517.88
2022-12-11T09:58:01.342Z,98516.06
2022-12-11T10:01:14.936Z,98512.81
2022-12-11T10:04:38.366Z,98497.84
2022-12-11T10:08:11.956Z,98495.91
2022-12-11T10:11:40.052Z,98485.72
2022-12-11T10:15:00.976Z,98487.97
2022-12-11T10:18:05.481Z,98506.44
2022-12-11T10:21:08.127Z,98527.47
2022-12-11T10:24:57.533Z,98527.38
2022-12-11T10:27:43.481Z,98550.91
2022-12-11T10:30:58.942Z,98546.56
2022-12-11T10:34:12.890Z,98560.22
2022-12-11T10:37:15.339Z,98552.63
2022-12-11T10:40:20.488Z,98543.53
2022-12-11T10:43:37.557Z,98539.28
2022-12-11T10:46:39.695Z,98561.78
2022-12-11T10:49:58.938Z,98563.06
2022-12-11T10:53:01.593Z,98562.78
2022-12-11T10:56:04.715Z,98562.41
2022-12-11T10:59:07.081Z,98554.41
2022-12-11T11:02:32.522Z,98559.16
2022-12-11T11:05:37.094Z,98551.72
2022-12-11T11:08:44.561Z,98559.84
2022-12-11T11:11:50.945Z,98556.47
2022-12-11T11:15:05.549Z,98559.94
2022-12-11T11:18:15.257Z,98564.75
2022-12-11T11:21:24.126Z,98537.59
2022-12-11T11:24:31.463Z,98540.06
2022-12-11T11:27:48.566Z,98525.81
2022-12-11T11:31:02.702Z,98532.94
2022-12-11T11:34:15.310Z,98551.72
2022-12-11T11:37:53.768Z,98546.34
2022-12-11T11:41:07.602Z,98568.63
2022-12-11T11:44:16.843Z,98568.91
2022-12-11T11:47:27.916Z,98584.16
2022-12-11T11:50:35.941Z,98576.84
2022-12-11T11:53:41.436Z,98578.63
2022-12-11T11:56:44.231Z,98587.50
2022-12-11T11:59:51.113Z,98572.25
2022-12-11T12:02:59.580Z,98589.97
2022-12-11T12:06:15.405Z,98588.09
2022-12-11T12:09:34.023Z,98598.16
2022-12-11T12:12:43.657Z,98607.03
2022-12-11T12:15:54.733Z,98607.41
2022-12-11T12:19:13.471Z,98611.19
2022-12-11T12:22:38.047Z,98610.91
2022-12-11T12:25:56.971Z,98623.56
2022-12-11T12:29:02.071Z,98614.06
2022-12-11T12:32:16.744Z,98618.31
2022-12-11T12:35:36.579Z,98616.75
2022-12-11T12:39:14.239Z,98615.75
2022-12-11T12:42:37.489Z,98620.19
2022-12-11T12:45:53.765Z,98612.59
2022-12-11T12:48:58.718Z,98633.94
2022-12-11T12:52:02.380Z,98632.84
2022-12-11T12:55:18.625Z,98647.28
2022-12-11T12:58:40.092Z,98646.78
2022-12-11T13:01:46.880Z,98656.06
2022-12-11T13:04:58.761Z,98677.88
2022-12-11T13:08:04.834Z,98688.06
2022-12-11T13:11:10.241Z,98695.38
2022-12-11T13:14:15.438Z,98691.03
2022-12-11T13:17:20.701Z,98688.56
2022-12-11T13:20:26.420Z,98716.16
2022-12-11T13:23:32.430Z,98709.41
2022-12-11T13:26:34.517Z,98710.91
2022-12-11T13:29:40.099Z,98707.06
2022-12-11T13:33:01.620Z,98698.84
2022-12-11T13:36:15.941Z,98711.22
2022-12-11T13:39:27.550Z,98724.44
2022-12-11T13:42:35.196Z,98723.47
2022-12-11T13:45:46.466Z,98719.31
2022-12-11T13:48:57.242Z,98729.34
2022-12-11T13:52:00.546Z,98732.09
2022-12-11T13:55:21.899Z,98735.00
2022-12-11T13:58:24.772Z,98742.50
2022-12-11T14:01:35.302Z,98744.19
2022-12-11T14:04:38.081Z,98756.50
2022-12-11T14:07:48.675Z,98760.09
2022-12-11T14:10:53.051Z,98771.47
2022-12-11T14:14:01.292Z,98780.66
2022-12-11T14:17:04.278Z,98774.31
2022-12-11T14:20:15.269Z,98786.66
2022-12-11T14:23:21.111Z,98798.81
2022-12-11T14:26:28.773Z,98792.09
2022-12-11T14:29:33.467Z,98796.66
2022-12-11T14:32:42.131Z,98797.84
2022-12-11T14:35:46.473Z,98813.44
2022-12-11T14:39:02.169Z,98820.25
2022-12-11T14:42:20.889Z,98811.25
2022-12-11T14:45:34.434Z,98832.59
2022-12-11T14:48:47.057Z,98834.75
2022-12-11T14:51:52.395Z,98829.00
2022-12-11T14:55:02.583Z,98830.25
2022-12-11T14:58:13.901Z,98836.94
2022-12-11T15:01:27.631Z,98837.22
2022-12-11T15:04:32.085Z,98841.28
2022-12-11T15:07:34.650Z,98838.03
2022-12-11T15:10:41.617Z,98843.56
2022-12-11T15:13:58.761Z,98850.50
2022-12-11T15:17:01.177Z,98856.13
2022-12-11T15:20:09.713Z,98869.03
2022-12-11T15:23:18.643Z,98846.12
2022-12-11T15:26:34.615Z,98853.41
2022-12-11T15:29:39.216Z,98861.66
2022-12-11T15:32:41.805Z,98867.44
2022-12-11T15:35:55.607Z,98864.84
2022-12-11T15:38:58.450Z,98871.97
2022-12-11T15:42:00.973Z,98867.50
2022-12-11T15:45:06.736Z,98862.38
2022-12-11T15:48:11.349Z,98867.00
2022-12-11T15:51:13.689Z,98882.25
2022-12-11T15:54:15.820Z,98870.00
2022-12-11T15:57:21.662Z,98860.34
2022-12-11T16:00:24.711Z,98877.78
2022-12-11T16:03:27.185Z,98862.59
2022-12-11T16:06:29.273Z,98870.44
2022-12-11T16:09:34.542Z,98884.31
2022-12-11T16:12:36.667Z,98870.81
2022-12-11T16:15:41.548Z,98888.81
2022-12-11T16:18:44.141Z,98889.09
2022-12-11T16:21:46.562Z,98885.78
2022-12-11T16:24:53.376Z,98889.59
2022-12-11T16:28:01.240Z,98885.41
2022-12-11T16:31:03.688Z,98903.09
2022-12-11T16:34:06.126Z,98883.34
2022-12-11T16:37:09.397Z,98891.81
2022-12-11T16:40:11.967Z,98890.28
2022-12-11T16:43:14.034Z,98904.34
2022-12-11T16:46:20.917Z,98902.31
2022-12-11T16:49:23.135Z,98899.53
2022-12-11T16:52:26.060Z,98906.72
2022-12-11T16:55:28.292Z,98915.78
2022-12-11T16:58:30.727Z,98909.00
2022-12-11T17:01:33.738Z,98899.81
2022-12-11T17:04:37.629Z,98898.72
2022-12-11T17:07:40.358Z,98912.63
2022-12-11T17:10:42.761Z,98901.44
2022-12-11T17:13:45.387Z,98892.47
2022-12-11T17:16:48.212Z,98888.03
2022-12-11T17:19:50.449Z,98894.66
2022-12-11T17:22:52.894Z,98893.59
2022-12-11T17:25:55.346Z,98904.69
2022-12-11T17:28:58.196Z,98889.22
2022-12-11T17:32:00.686Z,98904.25
2022-12-11T17:35:03.114Z,98898.63
2022-12-11T17:38:05.332Z,98897.25
2022-12-11T17:41:09.297Z,98896.47
2022-12-11T17:44:12.809Z,98911.78
2022-12-11T17:47:15.266Z,98908.03
2022-12-11T17:50:17.421Z,98897.53
2022-12-11T17:53:21.144Z,98887.69
2022-12-11T17:56:24.216Z,98887.81
2022-12-11T17:59:26.629Z,98898.97
2022-12-11T18:02:30.246Z,98896.66
2022-12-11T18:05:33.133Z,98906.06
2022-12-11T18:08:35.784Z,98902.31
2022-12-11T18:11:38.300Z,98913.34
2022-12-11T18:14:40.444Z,98911.03
2022-12-11T18:17:42.824Z,98915.28
2022-12-11T18:20:47.966Z,98908.09
2022-12-11T18:23:51.330Z,98917.94
2022-12-11T18:26:53.455Z,98920.91
2022-12-11T18:29:55.861Z,98923.38
2022-12-11T18:32:58.687Z,98935.00
2022-12-11T18:36:01.147Z,98930.53
2022-12-11T18:39:03.766Z,98938.78
2022-12-11T18:42:31.558Z,98937.47
2022-12-11T18:45:28.332Z,98942.44
2022-12-11T18:48:30.729Z,98941.25
2022-12-11T18:51:32.829Z,98942.22
2022-12-11T18:54:35.234Z,98943.47
2022-12-11T18:57:37.377Z,98945.34
2022-12-11T19:00:41.154Z,98953.97
2022-12-11T19:03:43.265Z,98955.16
2022-12-11T19:06:45.668Z,98955.03
2022-12-11T19:09:48.409Z,98959.44
2022-12-11T19:12:50.984Z,98955.91
2022-12-11T19:15:53.144Z,98964.63
2022-12-11T19:19:01.901Z,98966.50
2022-12-11T19:22:05.257Z,98960.59
2022-12-11T19:25:07.965Z,98960.09
2022-12-11T19:28:10.277Z,98960.44
2022-12-11T19:31:15.695Z,98987.06
2022-12-11T19:34:18.111Z,98984.09
2022-12-11T19:37:21.141Z,98969.22
2022-12-11T19:40:26.188Z,98977.91
2022-12-11T19:43:28.769Z,98967.94
2022-12-11T19:46:31.268Z,98974.84
2022-12-11T19:49:33.711Z,98984.03
2022-12-11T19:52:37.499Z,98977.56
2022-12-11T19:55:49.697Z,98993.50
2022-12-11T19:58:52.078Z,98986.66
2022-12-11T20:01:54.557Z,98982.13
2022-12-11T20:04:57.029Z,98981.91
2022-12-11T20:08:27.391Z,98979.09
2022-12-11T20:11:22.823Z,98983.62
2022-12-11T20:14:26.419Z,98988.75
2022-12-11T20:17:28.909Z,99004.50
2022-12-11T20:20:31.830Z,98990.69
2022-12-11T20:23:35.663Z,99001.59
2022-12-11T20:26:38.484Z,98996.59
2022-12-11T20:29:40.918Z,98997.38
2022-12-11T20:32:44.095Z,99007.31
2022-12-11T20:35:46.523Z,99012.84
2022-12-11T20:38:48.758Z,99027.03
2022-12-11T20:41:51.144Z,99007.53
2022-12-11T20:44:53.779Z,99023.28
2022-12-11T20:47:56.181Z,99023.59
2022-12-11T20:51:03.824Z,99027.06
2022-12-11T20:54:06.409Z,99021.94
2022-12-11T20:57:08.918Z,99025.59
2022-12-11T21:00:12.125Z,99027.75
2022-12-11T21:03:14.698Z,99020.28
2022-12-11T21:06:22.300Z,99029.88
2022-12-11T21:09:25.936Z,99036.12
2022-12-11T21:12:31.499Z,99047.87
2022-12-11T21:15:38.031Z,99041.75
2022-12-11T21:18:41.497Z,99046.47
2022-12-11T21:21:45.164Z,99057.75
2022-12-11T21:24:47.558Z,99053.50
2022-12-11T21:27:50.240Z,99055.37
2022-12-11T21:30:52.653Z,99060.41
2022-12-11T21:33:54.902Z,99063.34
2022-12-11T21:36:57.581Z,99066.31
2022-12-11T21:40:00.243Z,99071.34
2022-12-11T21:43:02.727Z,99067.88
2022-12-11T21:46:05.474Z,99075.34
2022-12-11T21:49:08.453Z,99079.59
2022-12-11T21:52:10.692Z,99081.78
2022-12-11T21:55:13.647Z,99076.75
2022-12-11T21:58:15.987Z,99093.50
2022-12-11T22:01:29.062Z,99107.81
2022-12-11T22:04:31.570Z,99097.72
2022-12-11T22:07:33.668Z,99095.59
2022-12-11T22:10:36.043Z,99108.38
2022-12-11T22:13:38.161Z,99106.78
2022-12-11T22:16:41.191Z,99103.75
2022-12-11T22:19:43.676Z,99097.25
2022-12-11T22:22:46.745Z,99104.13
2022-12-11T22:25:49.530Z,99099.88
2022-12-11T22:28:52.500Z,99107.88
2022-12-11T22:31:54.876Z,99098.78
2022-12-11T22:34:57.847Z,99099.34
2022-12-11T22:38:00.008Z,99079.72
2022-12-11T22:41:09.344Z,99089.81
2022-12-11T22:44:17.388Z,99099.63
2022-12-11T22:47:19.843Z,99112.38
2022-12-11T22:50:22.260Z,99098.62
2022-12-11T22:53:24.670Z,99104.22
2022-12-11T22:56:27.056Z,99095.22
2022-12-11T22:59:29.514Z,99103.19
2022-12-11T23:02:31.706Z,99104.78
2022-12-11T23:05:34.075Z,99107.16
2022-12-11T23:08:36.378Z,99122.81
2022-12-11T23:11:40.262Z,99112.19
2022-12-11T23:14:42.386Z,99110.09
2022-12-11T23:17:44.822Z,99101.06
2022-12-11T23:20:48.340Z,99109.31
2022-12-11T23:23:51.306Z,99107.47
2022-12-11T23:26:53.757Z,99107.44
2022-12-11T23:29:56.207Z,99105.06
2022-12-11T23:32:58.273Z,99102.69
2022-12-11T23:36:00.728Z,99112.25
2022-12-11T23:39:03.289Z,99115.44
2022-12-11T23:42:05.732Z,99117.03
2022-12-11T23:45:08.217Z,99111.19
2022-12-11T23:48:12.558Z,99110.69
2022-12-11T23:51:16.983Z,99112.00
2022-12-11T23:54:19.371Z,99114.12
2022-12-11T23:57:21.849Z,99103.22
